createdAt,value
2022-11-17T00:00:26.972Z,1.00
2022-11-17T00:02:23.740Z,1.00
2022-11-17T00:04:10.767Z,1.00
2022-11-17T00:06:02.355Z,1.00
2022-11-17T00:07:50.060Z,1.00
2022-11-17T00:09:37.096Z,1.00
2022-11-17T00:11:24.372Z,1.00
2022-11-17T00:13:30.050Z,1.00
2022-11-17T00:15:17.253Z,1.00
2022-11-17T00:17:07.744Z,1.00
2022-11-17T00:19:13.393Z,1.00
2022-11-17T00:21:19.169Z,1.00
2022-11-17T00:23:06.936Z,1.00
2022-11-17T00:24:54.090Z,1.00
2022-11-17T00:27:01.012Z,1.00
2022-11-17T00:29:08.550Z,1.00
2022-11-17T00:31:14.299Z,1.00
2022-11-17T00:33:24.323Z,1.00
2022-11-17T00:35:11.661Z,1.00
2022-11-17T00:36:58.730Z,99.90
2022-11-17T00:38:45.686Z,99.90
2022-11-17T00:40:33.009Z,99.90
2022-11-17T00:42:20.033Z,99.90
2022-11-17T00:44:07.852Z,99.90
2022-11-17T00:45:55.352Z,99.90
2022-11-17T00:47:43.166Z,99.90
2022-11-17T00:49:30.157Z,99.90
2022-11-17T00:51:17.756Z,99.90
2022-11-17T00:53:04.760Z,99.90
2022-11-17T00:54:51.879Z,99.90
2022-11-17T00:56:39.398Z,99.90
2022-11-17T00:58:26.479Z,99.90
2022-11-17T01:00:13.755Z,99.90
2022-11-17T01:02:01.337Z,99.90
2022-11-17T01:03:48.741Z,99.90
2022-11-17T01:05:35.773Z,99.90
2022-11-17T01:07:23.113Z,99.90
2022-11-17T01:09:13.526Z,99.90
2022-11-17T01:11:27.213Z,99.90
2022-11-17T01:13:18.673Z,99.90
2022-11-17T01:15:06.246Z,99.90
2022-11-17T01:16:54.016Z,99.90
2022-11-17T01:18:42.043Z,99.90
2022-11-17T01:20:29.023Z,99.90
2022-11-17T01:22:16.000Z,99.90
2022-11-17T01:24:03.575Z,99.90
2022-11-17T01:25:50.518Z,99.90
2022-11-17T01:27:38.100Z,99.90
2022-11-17T01:29:25.407Z,99.90
2022-11-17T01:31:15.404Z,99.90
2022-11-17T01:33:02.349Z,99.90
2022-11-17T01:34:49.725Z,99.90
2022-11-17T01:37:00.340Z,99.90
2022-11-17T01:38:47.535Z,99.90
2022-11-17T01:40:34.800Z,99.90
2022-11-17T01:42:24.720Z,99.90
2022-11-17T01:44:48.124Z,99.90
2022-11-17T01:46:39.825Z,99.90
2022-11-17T01:48:26.837Z,99.90
2022-11-17T01:50:28.123Z,99.90
2022-11-17T01:52:15.966Z,99.90
2022-11-17T01:54:03.199Z,99.90
2022-11-17T01:55:57.221Z,99.90
2022-11-17T01:58:02.860Z,99.90
2022-11-17T01:59:54.321Z,99.90
2022-11-17T02:01:55.744Z,99.90
2022-11-17T02:03:47.779Z,99.90
2022-11-17T02:05:42.605Z,99.90
2022-11-17T02:07:36.648Z,99.90
2022-11-17T02:09:25.984Z,99.90
2022-11-17T02:11:17.196Z,99.90
2022-11-17T02:13:04.998Z,99.90
2022-11-17T02:14:54.151Z,99.90
2022-11-17T02:16:41.534Z,99.90
2022-11-17T02:18:28.598Z,99.90
2022-11-17T02:20:28.950Z,99.90
2022-11-17T02:22:37.493Z,99.90
2022-11-17T02:24:43.133Z,99.90
2022-11-17T02:26:48.973Z,99.90
2022-11-17T02:28:55.356Z,99.90
2022-11-17T02:31:14.633Z,99.90
2022-11-17T02:33:20.299Z,99.90
2022-11-17T02:35:28.134Z,99.90
2022-11-17T02:37:27.902Z,99.90
2022-11-17T02:39:39.123Z,99.90
2022-11-17T02:41:49.417Z,99.90
2022-11-17T02:44:12.724Z,99.90
2022-11-17T02:46:09.430Z,99.90
2022-11-17T02:48:00.972Z,99.90
2022-11-17T02:49:57.197Z,99.90
2022-11-17T02:51:46.405Z,99.90
2022-11-17T02:53:34.742Z,99.90
2022-11-17T02:55:22.061Z,99.90
2022-11-17T02:57:32.160Z,99.90
2022-11-17T02:59:23.935Z,99.90
2022-11-17T03:05:11.602Z,99.90
2022-11-17T03:07:32.059Z,99.90
2022-11-17T03:09:28.896Z,99.90
2022-11-17T03:11:16.637Z,99.90
2022-11-17T03:13:25.488Z,99.90
2022-11-17T03:15:40.593Z,99.90
2022-11-17T03:17:35.699Z,99.90
2022-11-17T03:19:35.604Z,99.90
2022-11-17T03:21:34.669Z,99.90
2022-11-17T03:23:28.828Z,99.90
2022-11-17T03:25:20.605Z,99.90
2022-11-17T03:27:22.676Z,99.90
2022-11-17T03:29:13.135Z,99.90
2022-11-17T03:31:04.726Z,99.90
2022-11-17T03:33:02.283Z,99.90
2022-11-17T03:34:57.308Z,99.90
2022-11-17T03:36:50.131Z,99.90
2022-11-17T03:38:40.966Z,99.90
2022-11-17T03:40:30.744Z,99.90
2022-11-17T03:42:30.904Z,99.90
2022-11-17T03:44:19.647Z,99.90
2022-11-17T03:46:13.135Z,99.90
2022-11-17T03:48:49.789Z,99.90
2022-11-17T03:50:41.628Z,99.90
2022-11-17T03:52:30.160Z,99.90
2022-11-17T03:54:17.970Z,99.90
2022-11-17T03:56:35.298Z,99.90
2022-11-17T03:58:27.966Z,99.90
2022-11-17T04:00:16.689Z,99.90
2022-11-17T04:02:04.827Z,99.90
2022-11-17T04:03:52.275Z,99.90
2022-11-17T04:05:39.247Z,99.90
2022-11-17T04:07:26.256Z,99.90
2022-11-17T04:09:13.592Z,99.90
2022-11-17T04:11:19.134Z,99.90
2022-11-17T04:13:27.090Z,99.90
2022-11-17T04:15:33.043Z,99.90
2022-11-17T04:17:20.674Z,99.90
2022-11-17T04:19:07.671Z,99.90
2022-11-17T04:20:56.990Z,99.90
2022-11-17T04:22:43.995Z,99.90
2022-11-17T04:24:30.956Z,99.90
2022-11-17T04:26:37.119Z,99.90
2022-11-17T04:28:37.644Z,99.90
2022-11-17T04:30:24.595Z,99.90
2022-11-17T04:32:12.532Z,99.90
2022-11-17T04:34:02.218Z,99.90
2022-11-17T04:35:52.006Z,99.90
2022-11-17T04:37:39.338Z,99.90
2022-11-17T04:39:26.342Z,99.90
2022-11-17T04:41:33.179Z,99.90
2022-11-17T04:43:20.513Z,99.90
2022-11-17T04:45:08.015Z,99.90
2022-11-17T04:46:55.848Z,99.90
2022-11-17T04:48:43.894Z,99.90
2022-11-17T04:50:30.848Z,99.90
2022-11-17T04:52:17.839Z,99.90
2022-11-17T04:54:07.268Z,99.90
2022-11-17T04:55:54.305Z,99.90
2022-11-17T04:57:41.349Z,99.90
2022-11-17T04:59:31.049Z,99.90
2022-11-17T05:01:22.377Z,99.90
2022-11-17T05:03:09.379Z,99.90
2022-11-17T05:04:56.755Z,99.90
2022-11-17T05:06:44.968Z,99.90
2022-11-17T05:08:32.007Z,99.90
2022-11-17T05:10:39.281Z,99.90
2022-11-17T05:12:44.756Z,99.90
2022-11-17T05:14:31.869Z,99.90
2022-11-17T05:16:39.165Z,99.90
2022-11-17T05:18:26.176Z,99.90
2022-11-17T05:20:13.265Z,99.90
2022-11-17T05:22:01.553Z,99.90
2022-11-17T05:23:54.402Z,99.90
2022-11-17T05:25:41.384Z,99.90
2022-11-17T05:27:28.819Z,99.90
2022-11-17T05:29:18.435Z,99.90
2022-11-17T05:31:06.191Z,99.90
2022-11-17T05:32:53.659Z,99.90
2022-11-17T05:34:41.530Z,99.90
2022-11-17T05:36:29.988Z,99.90
2022-11-17T05:38:17.754Z,99.90
2022-11-17T05:40:06.043Z,99.90
2022-11-17T05:41:53.201Z,99.90
2022-11-17T05:43:41.489Z,99.90
2022-11-17T05:45:28.630Z,99.90
2022-11-17T05:47:16.257Z,99.90
2022-11-17T05:49:04.062Z,99.90
2022-11-17T05:50:55.269Z,99.90
2022-11-17T05:52:42.480Z,99.90
2022-11-17T05:54:30.065Z,99.90
2022-11-17T05:56:28.402Z,99.90
2022-11-17T05:58:24.297Z,99.90
2022-11-17T06:00:12.404Z,99.90
2022-11-17T06:02:15.963Z,99.90
2022-11-17T06:04:05.714Z,99.90
2022-11-17T06:05:53.911Z,99.90
2022-11-17T06:07:41.615Z,99.90
2022-11-17T06:09:34.606Z,99.90
2022-11-17T06:11:22.039Z,99.90
2022-11-17T06:13:09.631Z,99.90
2022-11-17T06:14:56.894Z,99.90
2022-11-17T06:16:48.949Z,99.90
2022-11-17T06:18:41.034Z,99.90
2022-11-17T06:20:35.423Z,99.90
2022-11-17T06:22:24.544Z,99.90
2022-11-17T06:24:14.923Z,99.90
2022-11-17T06:26:07.441Z,99.90
2022-11-17T06:27:56.193Z,99.90
2022-11-17T06:29:45.207Z,99.90
2022-11-17T06:31:32.587Z,99.90
2022-11-17T06:33:20.055Z,99.90
2022-11-17T06:35:08.704Z,99.90
2022-11-17T06:36:56.020Z,99.90
2022-11-17T06:38:43.342Z,99.90
2022-11-17T06:40:30.517Z,99.90
2022-11-17T06:42:17.489Z,99.90
2022-11-17T06:44:04.979Z,99.90
2022-11-17T06:45:52.142Z,99.90
2022-11-17T06:47:39.150Z,99.90
2022-11-17T06:49:26.446Z,99.90
2022-11-17T06:51:13.583Z,99.90
2022-11-17T06:53:06.228Z,96.40
2022-11-17T06:54:53.631Z,86.00
2022-11-17T06:56:40.879Z,81.60
2022-11-17T06:58:29.384Z,71.90
2022-11-17T07:00:17.543Z,34.00
2022-11-17T07:02:04.691Z,13.40
2022-11-17T07:03:52.075Z,1.50
2022-11-17T07:05:40.435Z,22.90
2022-11-17T07:07:27.986Z,1.00
2022-11-17T07:09:18.413Z,1.00
2022-11-17T07:11:10.246Z,1.00
2022-11-17T07:12:57.577Z,1.00
2022-11-17T07:14:47.154Z,1.00
2022-11-17T07:16:34.749Z,1.00
2022-11-17T07:18:22.328Z,1.00
2022-11-17T07:20:10.622Z,1.00
2022-11-17T07:21:58.240Z,1.00
2022-11-17T07:23:46.260Z,1.00
2022-11-17T07:25:33.404Z,1.00
2022-11-17T07:27:20.981Z,1.00
2022-11-17T07:29:08.148Z,99.90
2022-11-17T07:30:55.799Z,99.90
2022-11-17T07:32:43.117Z,99.90
2022-11-17T07:34:30.360Z,99.90
2022-11-17T07:36:17.509Z,99.90
2022-11-17T07:38:05.058Z,99.90
2022-11-17T07:39:52.137Z,99.90
2022-11-17T07:41:39.287Z,99.90
2022-11-17T07:43:27.555Z,99.90
2022-11-17T07:45:14.990Z,99.90
2022-11-17T07:47:02.348Z,99.90
2022-11-17T07:48:52.935Z,99.90
2022-11-17T07:50:41.792Z,99.90
2022-11-17T07:52:31.855Z,99.90
2022-11-17T07:54:19.320Z,99.90
2022-11-17T07:56:09.840Z,99.90
2022-11-17T07:57:58.982Z,99.90
2022-11-17T07:59:46.533Z,99.90
2022-11-17T08:01:33.802Z,99.90
2022-11-17T08:03:21.118Z,99.90
2022-11-17T08:05:09.204Z,28.00
2022-11-17T08:06:56.411Z,10.30
2022-11-17T08:08:43.575Z,1.00
2022-11-17T08:10:31.549Z,13.50
2022-11-17T08:12:18.599Z,41.40
2022-11-17T08:14:05.976Z,37.10
2022-11-17T08:15:57.522Z,27.60
2022-11-17T08:17:44.984Z,28.20
2022-11-17T08:19:32.176Z,19.30
2022-11-17T08:21:19.780Z,1.00
2022-11-17T08:23:06.884Z,1.00
2022-11-17T08:24:54.162Z,1.00
2022-11-17T08:26:41.533Z,1.00
2022-11-17T08:28:28.701Z,1.00
2022-11-17T08:30:15.959Z,1.00
2022-11-17T08:32:03.478Z,1.00
2022-11-17T08:33:50.593Z,1.00
2022-11-17T08:35:38.006Z,1.00
2022-11-17T08:37:25.511Z,99.90
2022-11-17T08:39:12.628Z,1.00
2022-11-17T08:41:02.876Z,1.00
2022-11-17T08:43:00.698Z,1.00
2022-11-17T08:44:48.265Z,1.00
2022-11-17T08:46:35.449Z,1.00
2022-11-17T08:48:23.196Z,1.00
2022-11-17T08:50:10.383Z,1.00
2022-11-17T08:51:57.521Z,1.00
2022-11-17T08:53:45.107Z,1.00
2022-11-17T08:55:40.940Z,1.00
2022-11-17T08:57:32.643Z,1.00
2022-11-17T08:59:20.161Z,1.00
2022-11-17T09:01:09.420Z,29.30
2022-11-17T09:02:56.520Z,17.90
2022-11-17T09:04:46.204Z,1.00
2022-11-17T09:06:33.269Z,1.00
2022-11-17T09:08:44.416Z,1.00
2022-11-17T09:10:27.704Z,1.00
2022-11-17T09:12:15.633Z,1.00
2022-11-17T09:14:02.805Z,1.00
2022-11-17T09:15:50.496Z,1.00
2022-11-17T09:17:37.673Z,1.00
2022-11-17T09:19:24.934Z,1.00
2022-11-17T09:21:15.611Z,1.00
2022-11-17T09:23:02.998Z,1.00
2022-11-17T09:24:50.123Z,1.00
2022-11-17T09:26:40.970Z,1.00
2022-11-17T09:28:28.795Z,1.00
2022-11-17T09:30:21.994Z,1.00
2022-11-17T09:32:09.712Z,1.00
2022-11-17T09:34:00.694Z,1.00
2022-11-17T09:35:50.777Z,1.00
2022-11-17T09:37:44.160Z,1.00
2022-11-17T09:39:31.198Z,1.00
2022-11-17T09:41:31.775Z,1.00
2022-11-17T09:43:27.172Z,1.00
2022-11-17T09:45:20.504Z,99.90
2022-11-17T09:47:10.447Z,99.90
2022-11-17T09:49:33.096Z,99.90
2022-11-17T09:51:25.526Z,99.90
2022-11-17T09:53:21.595Z,99.90
2022-11-17T09:55:08.922Z,1.00
2022-11-17T09:56:58.635Z,99.90
2022-11-17T09:58:58.887Z,99.90
2022-11-17T10:00:48.996Z,99.90
2022-11-17T10:02:36.436Z,99.90
2022-11-17T10:04:27.005Z,99.90
2022-11-17T10:06:21.609Z,99.90
2022-11-17T10:08:12.950Z,99.90
2022-11-17T10:10:02.348Z,99.90
2022-11-17T10:11:49.696Z,99.90
2022-11-17T10:13:37.959Z,99.90
2022-11-17T10:15:31.211Z,99.90
2022-11-17T10:17:19.069Z,99.90
2022-11-17T10:19:19.256Z,99.90
2022-11-17T10:21:08.439Z,99.90
2022-11-17T10:22:56.801Z,99.90
2022-11-17T10:24:50.486Z,99.90
2022-11-17T10:26:48.645Z,99.90
2022-11-17T10:28:36.336Z,99.90
2022-11-17T10:30:24.531Z,99.90
2022-11-17T10:32:15.470Z,99.90
2022-11-17T10:34:03.092Z,99.90
2022-11-17T10:35:56.434Z,99.90
2022-11-17T10:38:08.809Z,99.90
2022-11-17T10:40:25.650Z,99.90
2022-11-17T10:42:28.950Z,99.90
2022-11-17T10:44:22.179Z,99.90
2022-11-17T10:46:17.209Z,99.90
2022-11-17T10:48:37.531Z,99.90
2022-11-17T10:50:27.625Z,99.90
2022-11-17T10:52:18.070Z,99.90
2022-11-17T10:54:17.187Z,99.90
2022-11-17T10:56:21.806Z,99.90
2022-11-17T10:58:30.885Z,99.90
2022-11-17T11:00:28.221Z,99.90
2022-11-17T11:02:36.132Z,99.90
2022-11-17T11:04:32.771Z,99.90
2022-11-17T11:06:26.816Z,99.90
2022-11-17T11:08:21.147Z,99.90
2022-11-17T11:10:34.660Z,99.90
2022-11-17T11:13:17.474Z,99.90
2022-11-17T11:15:29.768Z,1.00
2022-11-17T11:17:17.961Z,78.60
2022-11-17T11:19:13.456Z,99.90
2022-11-17T11:21:07.724Z,25.80
2022-11-17T11:23:25.496Z,35.50
2022-11-17T11:25:37.775Z,1.00
2022-11-17T11:28:00.262Z,1.00
2022-11-17T11:30:04.339Z,1.00
2022-11-17T11:32:12.903Z,38.30
2022-11-17T11:34:19.304Z,82.40
2022-11-17T11:36:24.164Z,60.80
2022-11-17T11:38:29.000Z,64.00
2022-11-17T11:40:26.793Z,43.10
2022-11-17T11:42:42.768Z,34.90
2022-11-17T11:45:00.800Z,23.00
2022-11-17T11:47:20.466Z,99.90
2022-11-17T11:49:50.721Z,1.00
2022-11-17T11:51:39.039Z,83.70
2022-11-17T11:53:50.057Z,93.40
2022-11-17T11:55:39.898Z,99.90
2022-11-17T11:57:39.229Z,99.90
2022-11-17T11:59:38.179Z,23.40
2022-11-17T12:01:27.400Z,99.90
2022-11-17T12:03:42.806Z,91.50
2022-11-17T12:05:37.790Z,6.70
2022-11-17T12:07:50.579Z,88.50
2022-11-17T12:10:06.570Z,99.90
2022-11-17T12:12:00.380Z,99.90
2022-11-17T12:13:53.797Z,99.90
2022-11-17T12:15:42.003Z,99.90
2022-11-17T12:17:29.121Z,98.60
2022-11-17T12:19:44.363Z,77.20
2022-11-17T12:21:32.015Z,73.30
2022-11-17T12:23:54.703Z,90.30
2022-11-17T12:25:54.507Z,57.80
2022-11-17T12:27:53.866Z,58.40
2022-11-17T12:29:47.343Z,63.90
2022-11-17T12:31:46.450Z,86.60
2022-11-17T12:33:54.186Z,85.50
2022-11-17T12:35:41.301Z,90.70
2022-11-17T12:37:28.567Z,99.90
2022-11-17T12:39:52.077Z,99.90
2022-11-17T12:41:54.627Z,99.90
2022-11-17T12:43:42.110Z,99.90
2022-11-17T12:45:30.301Z,99.90
2022-11-17T12:47:18.598Z,99.90
2022-11-17T12:49:24.396Z,99.90
2022-11-17T12:51:35.338Z,99.90
2022-11-17T12:53:47.868Z,99.90
2022-11-17T12:55:34.916Z,99.90
2022-11-17T12:57:30.404Z,99.90
2022-11-17T12:59:49.725Z,99.90
2022-11-17T13:01:48.934Z,99.90
2022-11-17T13:04:01.599Z,99.90
2022-11-17T13:06:34.298Z,99.90
2022-11-17T13:08:21.984Z,99.90
2022-11-17T13:10:33.262Z,99.90
2022-11-17T13:12:25.338Z,1.00
2022-11-17T13:14:15.401Z,1.00
2022-11-17T13:16:02.747Z,1.00
2022-11-17T13:17:50.267Z,1.00
2022-11-17T13:19:41.733Z,1.00
2022-11-17T13:21:33.277Z,1.00
2022-11-17T13:23:23.734Z,1.00
2022-11-17T13:25:23.618Z,1.00
2022-11-17T13:27:29.260Z,1.00
2022-11-17T13:29:20.092Z,1.00
2022-11-17T13:31:18.144Z,1.00
2022-11-17T13:33:10.419Z,1.00
2022-11-17T13:34:59.930Z,1.00
2022-11-17T13:36:58.976Z,1.00
2022-11-17T13:38:51.341Z,1.00
2022-11-17T13:40:40.567Z,99.90
2022-11-17T13:42:32.804Z,1.00
2022-11-17T13:44:24.789Z,1.00
2022-11-17T13:46:12.101Z,1.00
2022-11-17T13:47:59.705Z,99.90
2022-11-17T13:49:46.821Z,99.90
2022-11-17T13:51:46.365Z,1.00
2022-11-17T13:53:34.282Z,99.90
2022-11-17T13:55:23.205Z,1.00
2022-11-17T13:57:22.740Z,1.00
2022-11-17T13:59:27.961Z,1.00
2022-11-17T14:01:20.261Z,1.00
2022-11-17T14:03:34.679Z,1.00
2022-11-17T14:05:28.110Z,1.00
2022-11-17T14:07:30.792Z,1.00
2022-11-17T14:09:19.186Z,1.00
2022-11-17T14:11:07.881Z,1.00
2022-11-17T14:13:22.902Z,1.00
2022-11-17T14:15:26.554Z,1.00
2022-11-17T14:17:20.283Z,1.00
2022-11-17T14:19:16.640Z,1.00
2022-11-17T14:21:08.073Z,1.00
2022-11-17T14:23:16.696Z,1.00
2022-11-17T14:25:05.725Z,1.00
2022-11-17T14:26:53.125Z,1.00
2022-11-17T14:28:40.452Z,1.00
2022-11-17T14:30:27.655Z,1.00
2022-11-17T14:32:14.679Z,1.00
2022-11-17T14:34:02.713Z,1.00
2022-11-17T14:35:58.647Z,1.00
2022-11-17T14:37:46.162Z,1.00
2022-11-17T14:39:33.599Z,1.00
2022-11-17T14:41:20.765Z,1.00
2022-11-17T14:43:07.922Z,1.00
2022-11-17T14:44:55.772Z,1.00
2022-11-17T14:46:43.524Z,1.00
2022-11-17T14:48:30.828Z,1.00
2022-11-17T14:50:19.746Z,1.00
2022-11-17T14:52:07.033Z,1.00
2022-11-17T14:53:54.382Z,1.00
2022-11-17T14:55:41.850Z,86.30
2022-11-17T14:57:28.971Z,1.00
2022-11-17T14:59:16.501Z,1.00
2022-11-17T15:01:17.869Z,1.00
2022-11-17T15:03:05.207Z,1.00
2022-11-17T15:04:52.922Z,1.00
2022-11-17T15:06:41.544Z,1.00
2022-11-17T15:08:28.930Z,1.00
2022-11-17T15:10:16.396Z,1.00
2022-11-17T15:12:05.213Z,1.00
2022-11-17T15:13:52.715Z,1.00
2022-11-17T15:15:39.821Z,1.00
2022-11-17T15:17:28.827Z,1.00
2022-11-17T15:19:15.964Z,1.00
2022-11-17T15:21:08.622Z,1.00
2022-11-17T15:23:01.866Z,1.00
2022-11-17T15:24:50.166Z,1.00
2022-11-17T15:26:37.277Z,1.00
2022-11-17T15:28:29.103Z,1.00
2022-11-17T15:30:17.817Z,1.00
2022-11-17T15:32:05.274Z,1.00
2022-11-17T15:33:52.671Z,1.00
2022-11-17T15:35:39.772Z,1.00
2022-11-17T15:37:27.255Z,1.00
2022-11-17T15:39:16.188Z,1.00
2022-11-17T15:41:03.871Z,1.00
2022-11-17T15:42:53.807Z,1.00
2022-11-17T15:44:41.286Z,1.00
2022-11-17T15:46:28.411Z,1.00
2022-11-17T15:48:18.691Z,1.00
2022-11-17T15:50:06.983Z,1.00
2022-11-17T15:51:54.517Z,99.90
2022-11-17T15:53:42.724Z,91.00
2022-11-17T15:55:30.077Z,67.60
2022-11-17T15:57:17.212Z,87.20
2022-11-17T15:59:06.039Z,85.00
2022-11-17T16:00:53.519Z,62.50
2022-11-17T16:02:43.262Z,65.70
2022-11-17T16:04:30.814Z,99.90
2022-11-17T16:06:20.805Z,99.90
2022-11-17T16:08:07.946Z,99.90
2022-11-17T16:09:55.070Z,99.90
2022-11-17T16:11:43.791Z,99.90
2022-11-17T16:13:31.115Z,99.90
2022-11-17T16:15:18.264Z,99.90
2022-11-17T16:17:05.737Z,75.50
2022-11-17T16:18:52.899Z,99.90
2022-11-17T16:20:40.033Z,47.30
2022-11-17T16:22:27.477Z,14.90
2022-11-17T16:24:15.254Z,42.90
2022-11-17T16:26:02.330Z,45.10
2022-11-17T16:27:49.707Z,8.70
2022-11-17T16:29:36.908Z,68.40
2022-11-17T16:31:25.979Z,65.20
2022-11-17T16:33:15.192Z,20.50
2022-11-17T16:35:02.232Z,19.00
2022-11-17T16:36:49.469Z,54.40
2022-11-17T16:38:42.322Z,63.00
2022-11-17T16:40:35.227Z,59.30
2022-11-17T16:42:22.404Z,74.00
2022-11-17T16:44:12.666Z,74.10
2022-11-17T16:45:59.988Z,52.50
2022-11-17T16:47:47.381Z,35.40
2022-11-17T16:49:35.955Z,24.30
2022-11-17T16:51:23.155Z,22.20
2022-11-17T16:53:10.489Z,50.50
2022-11-17T16:55:03.254Z,59.90
2022-11-17T16:56:51.810Z,60.40
2022-11-17T16:58:39.303Z,27.10
2022-11-17T17:00:26.695Z,49.40
2022-11-17T17:02:14.189Z,43.00
2022-11-17T17:04:04.547Z,43.40
2022-11-17T17:05:51.989Z,94.80
2022-11-17T17:07:39.241Z,92.70
2022-11-17T17:09:28.229Z,79.60
2022-11-17T17:11:16.421Z,99.90
2022-11-17T17:13:03.466Z,89.70
2022-11-17T17:14:50.514Z,92.70
2022-11-17T17:16:38.277Z,99.90
2022-11-17T17:18:25.314Z,99.90
2022-11-17T17:20:12.445Z,95.00
2022-11-17T17:21:59.875Z,98.60
2022-11-17T17:23:47.375Z,57.60
2022-11-17T17:25:34.436Z,41.10
2022-11-17T17:27:22.104Z,99.90
2022-11-17T17:29:10.031Z,52.50
2022-11-17T17:30:57.103Z,55.30
2022-11-17T17:32:44.494Z,95.80
2022-11-17T17:34:31.588Z,85.00
2022-11-17T17:36:23.857Z,99.80
2022-11-17T17:38:11.296Z,99.90
2022-11-17T17:39:58.344Z,93.90
2022-11-17T17:41:46.122Z,94.80
2022-11-17T17:43:34.647Z,99.90
2022-11-17T17:45:21.729Z,99.90
2022-11-17T17:47:08.869Z,99.90
2022-11-17T17:48:56.707Z,99.90
2022-11-17T17:50:43.741Z,99.90
2022-11-17T17:52:30.827Z,99.90
2022-11-17T17:54:20.840Z,99.90
2022-11-17T17:56:10.799Z,99.90
2022-11-17T17:57:58.017Z,99.90
2022-11-17T17:59:45.660Z,99.90
2022-11-17T18:01:35.590Z,99.90
2022-11-17T18:03:23.276Z,99.90
2022-11-17T18:05:10.864Z,99.90
2022-11-17T18:06:59.415Z,99.90
2022-11-17T18:08:47.044Z,99.90
2022-11-17T18:10:35.854Z,99.90
2022-11-17T18:12:22.983Z,99.90
2022-11-17T18:14:10.406Z,99.90
2022-11-17T18:16:06.517Z,99.90
2022-11-17T18:17:53.784Z,99.90
2022-11-17T18:19:40.995Z,99.90
2022-11-17T18:21:29.298Z,1.00
2022-11-17T18:23:16.558Z,1.00
2022-11-17T18:25:07.805Z,67.20
2022-11-17T18:26:55.630Z,44.90
2022-11-17T18:28:45.201Z,38.00
2022-11-17T18:30:33.005Z,99.90
2022-11-17T18:32:20.536Z,99.90
2022-11-17T18:34:27.840Z,99.90
2022-11-17T18:36:14.927Z,99.90
2022-11-17T18:38:02.495Z,93.60
2022-11-17T18:39:49.916Z,1.00
2022-11-17T18:41:37.498Z,1.00
2022-11-17T18:43:24.940Z,24.40
2022-11-17T18:45:12.161Z,57.00
2022-11-17T18:47:02.817Z,52.80
2022-11-17T18:48:53.055Z,30.50
2022-11-17T18:51:17.218Z,12.00
2022-11-17T18:52:52.086Z,6.00
2022-11-17T18:54:39.922Z,1.00
2022-11-17T18:56:31.072Z,18.40
2022-11-17T18:58:18.239Z,1.00
2022-11-17T19:00:06.789Z,1.00
2022-11-17T19:01:53.996Z,1.00
2022-11-17T19:03:43.079Z,1.00
2022-11-17T19:05:33.767Z,1.00
2022-11-17T19:07:20.967Z,1.00
2022-11-17T19:09:08.693Z,1.00
2022-11-17T19:10:56.110Z,1.00
2022-11-17T19:12:43.762Z,1.00
2022-11-17T19:14:30.914Z,1.00
2022-11-17T19:16:24.479Z,1.00
2022-11-17T19:18:11.689Z,1.00
2022-11-17T19:20:01.574Z,1.00
2022-11-17T19:21:50.742Z,1.00
2022-11-17T19:23:40.559Z,1.00
2022-11-17T19:25:28.800Z,1.00
2022-11-17T19:27:18.178Z,1.00
2022-11-17T19:29:17.830Z,1.00
2022-11-17T19:31:15.549Z,1.00
2022-11-17T19:33:03.796Z,1.00
2022-11-17T19:34:51.845Z,1.00
2022-11-17T19:36:39.712Z,1.00
2022-11-17T19:38:28.139Z,1.00
2022-11-17T19:40:15.698Z,1.00
2022-11-17T19:42:02.968Z,1.00
2022-11-17T19:43:55.698Z,1.00
2022-11-17T19:45:42.786Z,1.00
2022-11-17T19:47:29.826Z,1.00
2022-11-17T19:49:17.751Z,1.00
2022-11-17T19:51:17.335Z,1.00
2022-11-17T19:53:04.435Z,1.00
2022-11-17T19:54:51.841Z,1.00
2022-11-17T19:56:38.986Z,1.00
2022-11-17T19:58:25.999Z,6.30
2022-11-17T20:00:14.410Z,22.40
2022-11-17T20:02:01.562Z,9.90
2022-11-17T20:03:49.607Z,1.00
2022-11-17T20:05:37.722Z,1.00
2022-11-17T20:07:25.043Z,19.70
2022-11-17T20:09:14.888Z,88.00
2022-11-17T20:11:15.118Z,50.40
2022-11-17T20:13:02.210Z,22.60
2022-11-17T20:14:52.213Z,14.50
2022-11-17T20:16:42.071Z,33.40
2022-11-17T20:18:29.809Z,76.60
2022-11-17T20:20:17.752Z,75.80
2022-11-17T20:22:05.875Z,59.40
2022-11-17T20:23:53.748Z,58.30
2022-11-17T20:25:40.803Z,70.20
2022-11-17T20:27:28.274Z,80.50
2022-11-17T20:29:15.693Z,99.90
2022-11-17T20:31:12.368Z,99.90
2022-11-17T20:33:04.853Z,99.90
2022-11-17T20:34:52.005Z,99.90
2022-11-17T20:36:39.262Z,99.90
2022-11-17T20:38:29.433Z,99.90
2022-11-17T20:40:16.680Z,99.90
2022-11-17T20:42:03.846Z,99.90
2022-11-17T20:43:56.774Z,99.90
2022-11-17T20:45:43.910Z,99.90
2022-11-17T20:47:31.353Z,99.90
2022-11-17T20:49:19.315Z,99.90
2022-11-17T20:51:10.935Z,99.90
2022-11-17T20:52:57.984Z,99.90
2022-11-17T20:54:45.653Z,99.90
2022-11-17T20:56:32.802Z,99.90
2022-11-17T20:58:21.477Z,1.00
2022-11-17T21:00:09.918Z,1.00
2022-11-17T21:01:57.207Z,1.00
2022-11-17T21:03:48.044Z,99.90
2022-11-17T21:05:40.596Z,99.90
2022-11-17T21:07:28.677Z,99.90
2022-11-17T21:09:16.979Z,99.90
2022-11-17T21:11:06.013Z,99.90
2022-11-17T21:12:53.309Z,99.90
2022-11-17T21:14:40.512Z,1.00
2022-11-17T21:16:30.367Z,1.00
2022-11-17T21:18:23.651Z,1.00
2022-11-17T21:20:11.700Z,1.00
2022-11-17T21:21:59.134Z,1.00
2022-11-17T21:23:46.491Z,1.00
2022-11-17T21:25:36.451Z,1.00
2022-11-17T21:27:24.767Z,1.00
2022-11-17T21:29:12.013Z,1.00
2022-11-17T21:31:11.993Z,1.00
2022-11-17T21:32:59.937Z,99.90
2022-11-17T21:34:49.850Z,99.90
2022-11-17T21:36:37.230Z,99.90
2022-11-17T21:38:24.925Z,99.90
2022-11-17T21:40:12.155Z,99.90
2022-11-17T21:42:00.101Z,99.90
2022-11-17T21:43:49.707Z,99.90
2022-11-17T21:45:36.890Z,99.90
2022-11-17T21:47:23.970Z,99.90
2022-11-17T21:49:11.438Z,99.90
2022-11-17T21:50:58.799Z,99.90
2022-11-17T21:52:46.327Z,99.90
2022-11-17T21:54:33.989Z,99.90
2022-11-17T21:56:21.736Z,99.90
2022-11-17T21:58:08.845Z,99.90
2022-11-17T21:59:56.218Z,99.90
2022-11-17T22:01:43.462Z,99.90
2022-11-17T22:03:30.500Z,99.90
2022-11-17T22:05:18.072Z,99.90
2022-11-17T22:07:05.225Z,93.60
2022-11-17T22:08:54.222Z,81.50
2022-11-17T22:10:42.267Z,69.00
2022-11-17T22:12:29.329Z,82.20
2022-11-17T22:14:19.201Z,83.90
2022-11-17T22:16:14.461Z,90.70
2022-11-17T22:18:02.067Z,99.90
2022-11-17T22:19:49.170Z,99.90
2022-11-17T22:21:37.408Z,99.90
2022-11-17T22:23:24.581Z,96.10
2022-11-17T22:25:37.637Z,95.40
2022-11-17T22:27:18.876Z,69.00
2022-11-17T22:29:08.047Z,92.80
2022-11-17T22:30:55.833Z,25.40
2022-11-17T22:32:45.373Z,26.80
2022-11-17T22:34:32.948Z,22.20
2022-11-17T22:36:20.252Z,26.40
2022-11-17T22:38:07.570Z,29.00
2022-11-17T22:39:54.811Z,19.90
2022-11-17T22:41:42.058Z,1.00
2022-11-17T22:43:29.980Z,15.50
2022-11-17T22:45:17.021Z,1.00
2022-11-17T22:47:04.057Z,1.00
2022-11-17T22:48:51.951Z,1.00
2022-11-17T22:50:39.074Z,1.00
2022-11-17T22:52:26.039Z,1.00
2022-11-17T22:54:13.418Z,1.00
2022-11-17T22:56:06.988Z,1.00
2022-11-17T22:57:54.153Z,1.00
2022-11-17T22:59:41.778Z,1.00
2022-11-17T23:01:28.981Z,1.00
2022-11-17T23:03:16.069Z,1.00
2022-11-17T23:05:03.646Z,1.00
2022-11-17T23:06:50.679Z,1.00
2022-11-17T23:08:37.719Z,1.00
2022-11-17T23:10:25.081Z,1.00
2022-11-17T23:12:12.103Z,1.00
2022-11-17T23:13:59.265Z,1.00
2022-11-17T23:15:46.706Z,1.00
2022-11-17T23:17:33.708Z,1.00
2022-11-17T23:19:20.974Z,1.00
2022-11-17T23:21:10.624Z,1.00
2022-11-17T23:22:57.628Z,1.00
2022-11-17T23:24:44.684Z,1.00
2022-11-17T23:26:32.069Z,1.00
2022-11-17T23:28:19.637Z,1.00
2022-11-17T23:30:07.236Z,1.00
2022-11-17T23:31:54.517Z,1.00
2022-11-17T23:33:43.838Z,1.00
2022-11-17T23:35:32.651Z,1.00
2022-11-17T23:37:20.571Z,1.00
2022-11-17T23:39:07.664Z,1.00
2022-11-17T23:41:01.777Z,1.00
2022-11-17T23:42:49.101Z,1.00
2022-11-17T23:44:36.144Z,1.00
2022-11-17T23:46:24.993Z,1.00
2022-11-17T23:48:12.346Z,1.00
2022-11-17T23:49:59.318Z,1.00
2022-11-17T23:51:46.331Z,1.00
2022-11-17T23:53:34.437Z,1.00
2022-11-17T23:55:21.364Z,1.00
2022-11-17T23:57:08.351Z,1.00
2022-11-17T23:58:55.669Z,1.00
